Portada
METAR-TAF:

METAR-TAF

Aeroports :

Budapest, Hongria

latitud: 47-26N, longitud: 019-16E, altitud: 151 m

Observació

L'informe es va fer fa 18 hores i 33 minuts, a les 15:00 UTC
Vent 9 kt del Est/Nord-Est
Temperatura 0°C
Humitat 100%
Pressió 1013 hPa
Visibilitat: 3000 m
Cel ennuvolat a una alçada de 700 ft
Cel cobert a una alçada de 1700 ft
neu

METAR: LHBP 201500Z 06009KT 3000 -SN BKN007 OVC017 00/00 Q1013 RESN R88/290195 TEMPO 1400 SN SCT008 OVC020

Hora: 10:33 (09:33 UTC)

Pronòstic

L'informe es va fer fa 22 hores i 18 minuts, a les 11:15 UTC
Pronòstic vàlid del 20 a les 12 UTC al 21 a les 12 UTC
Vent 8 kt del Est/Nord-Est
Visibilitat: 5000 m
Núvols disperses a una alçada de 1000 ft
Cel cobert a una alçada de 2500 ft
neu
Temporalment
l' 20 a les 12 UTC al 21 a les 12 UTC
Visibilitat: 1000 m
Cel ennuvolat a una alçada de 400 ft
Cel cobert a una alçada de 1500 ft
neu

TAF: LHBP 201115Z 2012/2112 06008KT 5000 -SN SCT010 OVC025 TEMPO 2012/2112 1000 +SN BKN004 OVC015

Observacions i pronòstics meteorològics de més de 4000 aeroports (METAR i TAF).

Les estacions disponibles són els punts grocs i vermells al mapa.

Posi el ratolí al punt desitjat per veure el nom de l'estació.

Feu clic per veure les observacions i els pronòstics meteorològics.

Per canviar el mapa: feu clic els botons verds amb una creu de color negre per apropar; al botó verd amb un guió per allunyar la imatge; o en les fletxes verdes per a mapes adjacents.


METAR-TAF: